sensor_id;sensor_type;location;lat;lon;timestamp;temperature;humidity
66594;DHT22;53450;42.584;23.366;2022-08-21T00:01:27;17.13;86.49
66594;DHT22;53450;42.584;23.366;2022-08-21T00:04:19;17.07;86.41
66594;DHT22;53450;42.584;23.366;2022-08-21T00:06:45;17.10;86.32
66594;DHT22;53450;42.584;23.366;2022-08-21T00:09:10;17.11;86.34
66594;DHT22;53450;42.584;23.366;2022-08-21T00:11:37;17.11;86.54
66594;DHT22;53450;42.584;23.366;2022-08-21T00:14:06;16.93;86.70
66594;DHT22;53450;42.584;23.366;2022-08-21T00:16:32;16.76;87.14
66594;DHT22;53450;42.584;23.366;2022-08-21T00:18:58;16.76;87.02
66594;DHT22;53450;42.584;23.366;2022-08-21T00:21:24;16.65;87.61
66594;DHT22;53450;42.584;23.366;2022-08-21T00:23:51;16.66;87.77
66594;DHT22;53450;42.584;23.366;2022-08-21T00:26:17;16.69;87.23
66594;DHT22;53450;42.584;23.366;2022-08-21T00:28:43;16.58;87.90
66594;DHT22;53450;42.584;23.366;2022-08-21T00:31:11;16.44;88.19
66594;DHT22;53450;42.584;23.366;2022-08-21T00:33:36;16.42;88.29
66594;DHT22;53450;42.584;23.366;2022-08-21T00:36:02;16.61;88.09
66594;DHT22;53450;42.584;23.366;2022-08-21T00:38:28;16.76;88.25
66594;DHT22;53450;42.584;23.366;2022-08-21T00:40:58;16.58;87.98
66594;DHT22;53450;42.584;23.366;2022-08-21T00:43:31;16.55;88.39
66594;DHT22;53450;42.584;23.366;2022-08-21T00:45:58;16.77;87.77
66594;DHT22;53450;42.584;23.366;2022-08-21T00:48:25;16.90;87.50
66594;DHT22;53450;42.584;23.366;2022-08-21T00:51:24;16.69;87.66
66594;DHT22;53450;42.584;23.366;2022-08-21T00:54:17;16.55;88.15
66594;DHT22;53450;42.584;23.366;2022-08-21T00:56:44;16.51;88.36
66594;DHT22;53450;42.584;23.366;2022-08-21T00:59:10;16.72;87.79
66594;DHT22;53450;42.584;23.366;2022-08-21T01:01:36;16.58;88.12
66594;DHT22;53450;42.584;23.366;2022-08-21T01:04:02;16.59;88.17
66594;DHT22;53450;42.584;23.366;2022-08-21T01:06:28;16.55;88.13
66594;DHT22;53450;42.584;23.366;2022-08-21T01:08:54;16.77;88.19
66594;DHT22;53450;42.584;23.366;2022-08-21T01:11:19;16.80;87.93
66594;DHT22;53450;42.584;23.366;2022-08-21T01:13:45;16.76;87.80
66594;DHT22;53450;42.584;23.366;2022-08-21T01:16:15;16.68;87.93
66594;DHT22;53450;42.584;23.366;2022-08-21T01:18:43;16.51;88.29
66594;DHT22;53450;42.584;23.366;2022-08-21T01:23:43;16.79;88.05
66594;DHT22;53450;42.584;23.366;2022-08-21T01:26:10;16.86;87.44
66594;DHT22;53450;42.584;23.366;2022-08-21T01:29:26;16.52;87.98
66594;DHT22;53450;42.584;23.366;2022-08-21T01:31:53;16.49;88.43
66594;DHT22;53450;42.584;23.366;2022-08-21T01:34:19;16.71;87.83
66594;DHT22;53450;42.584;23.366;2022-08-21T01:36:46;16.59;88.23
66594;DHT22;53450;42.584;23.366;2022-08-21T01:39:12;16.69;88.35
66594;DHT22;53450;42.584;23.366;2022-08-21T01:41:38;16.79;87.40
66594;DHT22;53450;42.584;23.366;2022-08-21T01:44:04;16.83;87.12
66594;DHT22;53450;42.584;23.366;2022-08-21T01:46:30;16.93;87.07
66594;DHT22;53450;42.584;23.366;2022-08-21T01:48:55;16.99;86.94
66594;DHT22;53450;42.584;23.366;2022-08-21T01:51:21;16.96;86.68
66594;DHT22;53450;42.584;23.366;2022-08-21T01:53:47;16.77;86.91
66594;DHT22;53450;42.584;23.366;2022-08-21T01:56:16;16.63;87.47
66594;DHT22;53450;42.584;23.366;2022-08-21T01:58:45;16.80;87.38
66594;DHT22;53450;42.584;23.366;2022-08-21T02:01:11;16.86;86.49
66594;DHT22;53450;42.584;23.366;2022-08-21T02:03:37;16.84;86.48
66594;DHT22;53450;42.584;23.366;2022-08-21T02:06:04;16.92;86.69
66594;DHT22;53450;42.584;23.366;2022-08-21T02:08:30;16.94;86.49
66594;DHT22;53450;42.584;23.366;2022-08-21T02:10:56;16.90;86.59
66594;DHT22;53450;42.584;23.366;2022-08-21T02:13:22;16.86;86.55
66594;DHT22;53450;42.584;23.366;2022-08-21T02:15:48;16.79;86.72
66594;DHT22;53450;42.584;23.366;2022-08-21T02:18:14;16.89;86.46
66594;DHT22;53450;42.584;23.366;2022-08-21T02:20:42;16.86;86.24
66594;DHT22;53450;42.584;23.366;2022-08-21T02:23:10;16.86;86.06
66594;DHT22;53450;42.584;23.366;2022-08-21T02:25:37;16.90;86.19
66594;DHT22;53450;42.584;23.366;2022-08-21T02:28:08;16.83;86.03
66594;DHT22;53450;42.584;23.366;2022-08-21T02:30:37;16.80;86.00
66594;DHT22;53450;42.584;23.366;2022-08-21T02:33:04;16.48;86.99
66594;DHT22;53450;42.584;23.366;2022-08-21T02:35:30;16.36;87.51
66594;DHT22;53450;42.584;23.366;2022-08-21T02:38:00;16.45;87.67
66594;DHT22;53450;42.584;23.366;2022-08-21T02:40:36;16.66;87.19
66594;DHT22;53450;42.584;23.366;2022-08-21T02:43:04;16.72;86.66
66594;DHT22;53450;42.584;23.366;2022-08-21T02:45:30;16.71;86.56
66594;DHT22;53450;42.584;23.366;2022-08-21T02:47:58;16.63;86.79
66594;DHT22;53450;42.584;23.366;2022-08-21T02:50:31;16.58;86.66
66594;DHT22;53450;42.584;23.366;2022-08-21T02:52:57;16.42;86.84
66594;DHT22;53450;42.584;23.366;2022-08-21T02:55:24;16.22;87.38
66594;DHT22;53450;42.584;23.366;2022-08-21T02:57:52;16.08;87.86
66594;DHT22;53450;42.584;23.366;2022-08-21T03:00:18;16.07;88.09
66594;DHT22;53450;42.584;23.366;2022-08-21T03:02:47;16.10;88.19
66594;DHT22;53450;42.584;23.366;2022-08-21T03:05:13;16.04;88.23
66594;DHT22;53450;42.584;23.366;2022-08-21T03:07:41;16.17;88.07
66594;DHT22;53450;42.584;23.366;2022-08-21T03:10:07;16.38;87.15
66594;DHT22;53450;42.584;23.366;2022-08-21T03:12:33;16.40;86.68
66594;DHT22;53450;42.584;23.366;2022-08-21T03:15:02;16.20;86.98
66594;DHT22;53450;42.584;23.366;2022-08-21T03:17:29;16.38;87.10
66594;DHT22;53450;42.584;23.366;2022-08-21T03:19:54;16.48;86.44
66594;DHT22;53450;42.584;23.366;2022-08-21T03:22:20;16.51;86.31
66594;DHT22;53450;42.584;23.366;2022-08-21T03:24:45;16.40;86.87
66594;DHT22;53450;42.584;23.366;2022-08-21T03:27:11;16.17;87.42
66594;DHT22;53450;42.584;23.366;2022-08-21T03:29:40;16.35;87.50
66594;DHT22;53450;42.584;23.366;2022-08-21T03:32:06;16.47;86.68
66594;DHT22;53450;42.584;23.366;2022-08-21T03:34:59;16.62;86.25
66594;DHT22;53450;42.584;23.366;2022-08-21T03:37:51;16.68;85.99
66594;DHT22;53450;42.584;23.366;2022-08-21T03:40:18;16.56;86.40
66594;DHT22;53450;42.584;23.366;2022-08-21T03:42:44;16.21;87.33
66594;DHT22;53450;42.584;23.366;2022-08-21T03:45:13;15.96;87.71
66594;DHT22;53450;42.584;23.366;2022-08-21T03:47:39;15.82;88.24
66594;DHT22;53450;42.584;23.366;2022-08-21T03:50:15;15.64;88.48
66594;DHT22;53450;42.584;23.366;2022-08-21T03:52:42;15.89;88.20
66594;DHT22;53450;42.584;23.366;2022-08-21T03:55:08;16.11;87.33
66594;DHT22;53450;42.584;23.366;2022-08-21T03:57:33;16.21;86.80
66594;DHT22;53450;42.584;23.366;2022-08-21T03:59:59;16.25;86.62
66594;DHT22;53450;42.584;23.366;2022-08-21T04:02:24;16.22;86.30
66594;DHT22;53450;42.584;23.366;2022-08-21T04:04:50;16.11;86.54
66594;DHT22;53450;42.584;23.366;2022-08-21T04:07:16;15.79;87.12
66594;DHT22;53450;42.584;23.366;2022-08-21T04:09:43;15.80;87.69
66594;DHT22;53450;42.584;23.366;2022-08-21T04:12:09;16.05;87.13
66594;DHT22;53450;42.584;23.366;2022-08-21T04:14:35;16.20;86.67
66594;DHT22;53450;42.584;23.366;2022-08-21T04:17:00;16.24;86.57
66594;DHT22;53450;42.584;23.366;2022-08-21T04:19:26;16.38;86.42
66594;DHT22;53450;42.584;23.366;2022-08-21T04:21:51;16.47;86.30
66594;DHT22;53450;42.584;23.366;2022-08-21T04:24:17;16.49;86.09
66594;DHT22;53450;42.584;23.366;2022-08-21T04:26:44;16.48;85.99
66594;DHT22;53450;42.584;23.366;2022-08-21T04:29:09;16.41;86.10
66594;DHT22;53450;42.584;23.366;2022-08-21T04:31:35;16.53;86.11
66594;DHT22;53450;42.584;23.366;2022-08-21T04:34:03;16.65;85.44
66594;DHT22;53450;42.584;23.366;2022-08-21T04:36:30;16.76;85.44
66594;DHT22;53450;42.584;23.366;2022-08-21T04:38:56;16.75;85.13
66594;DHT22;53450;42.584;23.366;2022-08-21T04:41:22;16.69;85.25
66594;DHT22;53450;42.584;23.366;2022-08-21T04:43:47;16.71;85.42
66594;DHT22;53450;42.584;23.366;2022-08-21T04:46:13;16.72;85.26
66594;DHT22;53450;42.584;23.366;2022-08-21T04:48:38;16.36;85.83
66594;DHT22;53450;42.584;23.366;2022-08-21T04:51:21;16.24;86.20
66594;DHT22;53450;42.584;23.366;2022-08-21T04:53:59;16.10;86.24
66594;DHT22;53450;42.584;23.366;2022-08-21T04:56:38;15.98;86.68
66594;DHT22;53450;42.584;23.366;2022-08-21T04:59:50;16.17;86.65
66594;DHT22;53450;42.584;23.366;2022-08-21T05:02:17;16.28;86.26
66594;DHT22;53450;42.584;23.366;2022-08-21T05:04:50;16.52;86.22
66594;DHT22;53450;42.584;23.366;2022-08-21T05:07:22;16.80;85.62
66594;DHT22;53450;42.584;23.366;2022-08-21T05:09:49;17.03;85.28
66594;DHT22;53450;42.584;23.366;2022-08-21T05:12:15;17.20;84.64
66594;DHT22;53450;42.584;23.366;2022-08-21T05:14:42;17.17;85.96
66594;DHT22;53450;42.584;23.366;2022-08-21T05:17:08;17.27;85.70
66594;DHT22;53450;42.584;23.366;2022-08-21T05:19:34;17.32;85.46
66594;DHT22;53450;42.584;23.366;2022-08-21T05:22:00;17.19;85.35
66594;DHT22;53450;42.584;23.366;2022-08-21T05:24:27;17.14;85.28
66594;DHT22;53450;42.584;23.366;2022-08-21T05:26:52;17.13;85.69
66594;DHT22;53450;42.584;23.366;2022-08-21T05:29:18;17.13;86.47
66594;DHT22;53450;42.584;23.366;2022-08-21T05:31:45;17.17;86.63
66594;DHT22;53450;42.584;23.366;2022-08-21T05:34:12;17.14;85.45
66594;DHT22;53450;42.584;23.366;2022-08-21T05:36:38;17.31;85.44
66594;DHT22;53450;42.584;23.366;2022-08-21T05:39:04;17.61;85.94
66594;DHT22;53450;42.584;23.366;2022-08-21T05:41:30;17.83;84.99
66594;DHT22;53450;42.584;23.366;2022-08-21T05:43:55;17.89;83.55
66594;DHT22;53450;42.584;23.366;2022-08-21T05:46:21;18.13;83.30
66594;DHT22;53450;42.584;23.366;2022-08-21T05:48:46;18.34;83.27
66594;DHT22;53450;42.584;23.366;2022-08-21T05:51:14;18.43;81.73
66594;DHT22;53450;42.584;23.366;2022-08-21T05:53:40;18.64;82.06
66594;DHT22;53450;42.584;23.366;2022-08-21T05:56:08;18.94;81.77
66594;DHT22;53450;42.584;23.366;2022-08-21T05:58:34;19.07;79.87
66594;DHT22;53450;42.584;23.366;2022-08-21T06:01:01;19.14;78.79
66594;DHT22;53450;42.584;23.366;2022-08-21T06:03:35;19.26;76.84
66594;DHT22;53450;42.584;23.366;2022-08-21T06:06:02;19.35;79.71
66594;DHT22;53450;42.584;23.366;2022-08-21T06:08:27;19.35;80.91
66594;DHT22;53450;42.584;23.366;2022-08-21T06:10:55;19.20;82.59
66594;DHT22;53450;42.584;23.366;2022-08-21T06:13:22;19.02;82.21
66594;DHT22;53450;42.584;23.366;2022-08-21T06:15:48;18.97;81.93
66594;DHT22;53450;42.584;23.366;2022-08-21T06:18:14;19.01;82.55
66594;DHT22;53450;42.584;23.366;2022-08-21T06:20:40;19.18;81.51
66594;DHT22;53450;42.584;23.366;2022-08-21T06:23:05;19.37;80.04
66594;DHT22;53450;42.584;23.366;2022-08-21T06:25:56;19.45;80.96
66594;DHT22;53450;42.584;23.366;2022-08-21T06:28:47;19.42;79.64
66594;DHT22;53450;42.584;23.366;2022-08-21T06:31:18;19.53;80.45
66594;DHT22;53450;42.584;23.366;2022-08-21T06:33:44;19.67;79.75
66594;DHT22;53450;42.584;23.366;2022-08-21T06:36:10;19.76;79.98
66594;DHT22;53450;42.584;23.366;2022-08-21T06:38:36;19.88;80.13
66594;DHT22;53450;42.584;23.366;2022-08-21T06:41:02;19.78;78.84
66594;DHT22;53450;42.584;23.366;2022-08-21T06:43:28;19.59;79.22
66594;DHT22;53450;42.584;23.366;2022-08-21T06:46:18;19.65;79.86
66594;DHT22;53450;42.584;23.366;2022-08-21T06:48:44;19.98;79.13
66594;DHT22;53450;42.584;23.366;2022-08-21T06:51:10;20.14;78.59
66594;DHT22;53450;42.584;23.366;2022-08-21T06:53:35;20.24;78.02
66594;DHT22;53450;42.584;23.366;2022-08-21T06:56:01;20.17;77.52
66594;DHT22;53450;42.584;23.366;2022-08-21T06:58:27;20.24;75.68
66594;DHT22;53450;42.584;23.366;2022-08-21T07:00:53;20.07;76.70
66594;DHT22;53450;42.584;23.366;2022-08-21T07:03:32;20.29;76.79
66594;DHT22;53450;42.584;23.366;2022-08-21T07:05:58;20.48;76.67
66594;DHT22;53450;42.584;23.366;2022-08-21T07:08:25;20.55;76.67
66594;DHT22;53450;42.584;23.366;2022-08-21T07:10:53;20.56;76.29
66594;DHT22;53450;42.584;23.366;2022-08-21T07:13:20;20.26;76.96
66594;DHT22;53450;42.584;23.366;2022-08-21T07:15:46;20.25;77.14
66594;DHT22;53450;42.584;23.366;2022-08-21T07:18:12;20.18;76.74
66594;DHT22;53450;42.584;23.366;2022-08-21T07:20:39;19.94;77.53
66594;DHT22;53450;42.584;23.366;2022-08-21T07:23:08;20.05;76.22
66594;DHT22;53450;42.584;23.366;2022-08-21T07:25:34;20.18;75.77
66594;DHT22;53450;42.584;23.366;2022-08-21T07:28:00;20.22;76.69
66594;DHT22;53450;42.584;23.366;2022-08-21T07:30:26;20.17;75.95
66594;DHT22;53450;42.584;23.366;2022-08-21T07:32:53;20.13;75.84
66594;DHT22;53450;42.584;23.366;2022-08-21T07:35:44;19.94;77.64
66594;DHT22;53450;42.584;23.366;2022-08-21T07:38:09;20.03;77.23
66594;DHT22;53450;42.584;23.366;2022-08-21T07:40:35;19.78;77.91
66594;DHT22;53450;42.584;23.366;2022-08-21T07:43:01;19.78;76.28
66594;DHT22;53450;42.584;23.366;2022-08-21T07:45:26;19.74;77.94
66594;DHT22;53450;42.584;23.366;2022-08-21T07:47:52;19.81;76.04
66594;DHT22;53450;42.584;23.366;2022-08-21T07:50:18;20.07;77.54
66594;DHT22;53450;42.584;23.366;2022-08-21T07:52:45;20.34;77.63
66594;DHT22;53450;42.584;23.366;2022-08-21T07:55:14;20.36;75.80
66594;DHT22;53450;42.584;23.366;2022-08-21T07:57:41;20.49;76.35
66594;DHT22;53450;42.584;23.366;2022-08-21T08:00:10;20.83;75.35
66594;DHT22;53450;42.584;23.366;2022-08-21T08:02:39;21.03;73.52
66594;DHT22;53450;42.584;23.366;2022-08-21T08:05:09;21.10;72.06
66594;DHT22;53450;42.584;23.366;2022-08-21T08:07:35;21.26;73.66
66594;DHT22;53450;42.584;23.366;2022-08-21T08:10:02;21.23;72.80
66594;DHT22;53450;42.584;23.366;2022-08-21T08:12:27;21.11;71.24
66594;DHT22;53450;42.584;23.366;2022-08-21T08:14:58;21.27;71.04
66594;DHT22;53450;42.584;23.366;2022-08-21T08:17:24;21.54;72.30
66594;DHT22;53450;42.584;23.366;2022-08-21T08:19:51;21.58;70.92
66594;DHT22;53450;42.584;23.366;2022-08-21T08:22:18;21.38;70.37
66594;DHT22;53450;42.584;23.366;2022-08-21T08:24:45;21.28;70.71
66594;DHT22;53450;42.584;23.366;2022-08-21T08:27:11;21.24;71.90
66594;DHT22;53450;42.584;23.366;2022-08-21T08:29:37;21.11;73.13
66594;DHT22;53450;42.584;23.366;2022-08-21T08:32:04;20.80;72.55
66594;DHT22;53450;42.584;23.366;2022-08-21T08:34:33;20.86;72.66
66594;DHT22;53450;42.584;23.366;2022-08-21T08:36:58;20.77;73.71
66594;DHT22;53450;42.584;23.366;2022-08-21T08:39:24;20.82;72.90
66594;DHT22;53450;42.584;23.366;2022-08-21T08:41:57;20.94;72.79
66594;DHT22;53450;42.584;23.366;2022-08-21T08:44:24;21.08;72.60
66594;DHT22;53450;42.584;23.366;2022-08-21T08:46:50;21.02;73.65
66594;DHT22;53450;42.584;23.366;2022-08-21T08:49:24;20.97;72.14
66594;DHT22;53450;42.584;23.366;2022-08-21T08:52:16;21.00;72.68
66594;DHT22;53450;42.584;23.366;2022-08-21T08:54:58;21.02;72.68
66594;DHT22;53450;42.584;23.366;2022-08-21T08:57:26;21.17;72.14
66594;DHT22;53450;42.584;23.366;2022-08-21T08:59:55;21.15;71.90
66594;DHT22;53450;42.584;23.366;2022-08-21T09:02:21;21.02;72.40
66594;DHT22;53450;42.584;23.366;2022-08-21T09:04:50;21.23;71.78
66594;DHT22;53450;42.584;23.366;2022-08-21T09:10:29;21.48;70.14
66594;DHT22;53450;42.584;23.366;2022-08-21T09:13:00;21.62;69.20
66594;DHT22;53450;42.584;23.366;2022-08-21T09:26:14;22.36;66.22
66594;DHT22;53450;42.584;23.366;2022-08-21T09:28:41;22.37;66.91
66594;DHT22;53450;42.584;23.366;2022-08-21T09:31:28;22.47;63.45
66594;DHT22;53450;42.584;23.366;2022-08-21T09:34:07;22.63;65.95
66594;DHT22;53450;42.584;23.366;2022-08-21T09:36:40;22.17;67.31
66594;DHT22;53450;42.584;23.366;2022-08-21T09:39:09;22.08;67.57
66594;DHT22;53450;42.584;23.366;2022-08-21T09:41:36;22.02;68.25
66594;DHT22;53450;42.584;23.366;2022-08-21T09:44:06;22.09;68.58
66594;DHT22;53450;42.584;23.366;2022-08-21T09:46:33;21.62;70.27
66594;DHT22;53450;42.584;23.366;2022-08-21T09:49:00;21.26;72.14
66594;DHT22;53450;42.584;23.366;2022-08-21T09:51:29;21.34;73.06
66594;DHT22;53450;42.584;23.366;2022-08-21T09:53:58;21.24;73.01
66594;DHT22;53450;42.584;23.366;2022-08-21T09:56:36;21.15;73.65
66594;DHT22;53450;42.584;23.366;2022-08-21T09:59:31;20.96;74.48
66594;DHT22;53450;42.584;23.366;2022-08-21T10:02:00;20.93;73.81
66594;DHT22;53450;42.584;23.366;2022-08-21T10:04:32;20.99;73.94
66594;DHT22;53450;42.584;23.366;2022-08-21T10:07:25;21.26;74.54
66594;DHT22;53450;42.584;23.366;2022-08-21T10:13:12;21.35;73.13
66594;DHT22;53450;42.584;23.366;2022-08-21T10:18:10;21.21;72.90
66594;DHT22;53450;42.584;23.366;2022-08-21T10:26:06;21.59;71.75
66594;DHT22;53450;42.584;23.366;2022-08-21T10:28:47;21.44;72.04
66594;DHT22;53450;42.584;23.366;2022-08-21T10:31:59;21.47;73.31
66594;DHT22;53450;42.584;23.366;2022-08-21T10:42:17;22.37;69.11
66594;DHT22;53450;42.584;23.366;2022-08-21T10:44:59;22.86;67.19
66594;DHT22;53450;42.584;23.366;2022-08-21T10:47:57;22.86;68.72
66594;DHT22;53450;42.584;23.366;2022-08-21T10:50:59;22.95;66.76
66594;DHT22;53450;42.584;23.366;2022-08-21T10:53:40;23.20;67.74
66594;DHT22;53450;42.584;23.366;2022-08-21T10:56:17;23.55;65.88
66594;DHT22;53450;42.584;23.366;2022-08-21T11:05:09;23.29;62.58
66594;DHT22;53450;42.584;23.366;2022-08-21T11:07:55;22.90;61.12
66594;DHT22;53450;42.584;23.366;2022-08-21T11:10:48;23.15;63.06
66594;DHT22;53450;42.584;23.366;2022-08-21T11:13:24;23.08;63.23
66594;DHT22;53450;42.584;23.366;2022-08-21T11:15:56;22.84;62.78
66594;DHT22;53450;42.584;23.366;2022-08-21T11:18:37;22.83;60.73
66594;DHT22;53450;42.584;23.366;2022-08-21T11:23:59;22.94;63.26
66594;DHT22;53450;42.584;23.366;2022-08-21T11:29:36;22.97;62.13
66594;DHT22;53450;42.584;23.366;2022-08-21T11:34:54;23.01;63.39
66594;DHT22;53450;42.584;23.366;2022-08-21T11:37:47;22.88;62.33
66594;DHT22;53450;42.584;23.366;2022-08-21T11:45:56;22.41;65.18
66594;DHT22;53450;42.584;23.366;2022-08-21T11:51:06;22.61;64.64
66594;DHT22;53450;42.584;23.366;2022-08-21T11:53:38;22.81;63.52
66594;DHT22;53450;42.584;23.366;2022-08-21T11:56:15;22.98;63.28
66594;DHT22;53450;42.584;23.366;2022-08-21T11:58:56;23.09;63.95
66594;DHT22;53450;42.584;23.366;2022-08-21T12:01:43;22.81;63.20
66594;DHT22;53450;42.584;23.366;2022-08-21T12:04:44;22.86;63.19
66594;DHT22;53450;42.584;23.366;2022-08-21T12:07:14;22.84;64.81
66594;DHT22;53450;42.584;23.366;2022-08-21T12:09:40;22.37;67.76
66594;DHT22;53450;42.584;23.366;2022-08-21T12:12:12;22.35;66.66
66594;DHT22;53450;42.584;23.366;2022-08-21T12:14:50;22.41;67.23
66594;DHT22;53450;42.584;23.366;2022-08-21T12:17:23;22.33;65.41
66594;DHT22;53450;42.584;23.366;2022-08-21T12:20:00;22.49;64.08
66594;DHT22;53450;42.584;23.366;2022-08-21T12:23:17;22.49;66.14
66594;DHT22;53450;42.584;23.366;2022-08-21T12:26:34;22.58;65.76
66594;DHT22;53450;42.584;23.366;2022-08-21T12:28:33;22.54;66.45
66594;DHT22;53450;42.584;23.366;2022-08-21T12:30:59;22.44;67.14
66594;DHT22;53450;42.584;23.366;2022-08-21T12:33:32;22.35;68.41
66594;DHT22;53450;42.584;23.366;2022-08-21T12:39:00;22.43;68.32
66594;DHT22;53450;42.584;23.366;2022-08-21T12:41:31;22.58;68.28
66594;DHT22;53450;42.584;23.366;2022-08-21T12:44:00;22.63;69.52
66594;DHT22;53450;42.584;23.366;2022-08-21T12:46:36;22.53;70.08
66594;DHT22;53450;42.584;23.366;2022-08-21T12:49:11;22.28;69.93
66594;DHT22;53450;42.584;23.366;2022-08-21T12:51:56;22.43;70.35
66594;DHT22;53450;42.584;23.366;2022-08-21T12:54:27;22.51;70.07
66594;DHT22;53450;42.584;23.366;2022-08-21T12:57:24;22.56;69.53
66594;DHT22;53450;42.584;23.366;2022-08-21T12:59:56;22.44;68.97
66594;DHT22;53450;42.584;23.366;2022-08-21T13:02:23;22.36;69.19
66594;DHT22;53450;42.584;23.366;2022-08-21T13:04:50;22.33;69.71
66594;DHT22;53450;42.584;23.366;2022-08-21T13:07:29;22.40;70.17
66594;DHT22;53450;42.584;23.366;2022-08-21T13:10:00;22.49;69.16
66594;DHT22;53450;42.584;23.366;2022-08-21T13:12:27;22.47;68.98
66594;DHT22;53450;42.584;23.366;2022-08-21T13:14:56;22.50;70.24
66594;DHT22;53450;42.584;23.366;2022-08-21T13:17:49;22.51;71.09
66594;DHT22;53450;42.584;23.366;2022-08-21T13:20:28;22.57;71.25
66594;DHT22;53450;42.584;23.366;2022-08-21T13:22:55;22.58;71.86
66594;DHT22;53450;42.584;23.366;2022-08-21T13:25:25;22.50;71.52
66594;DHT22;53450;42.584;23.366;2022-08-21T13:28:11;22.50;73.95
66594;DHT22;53450;42.584;23.366;2022-08-21T13:30:48;22.40;72.96
66594;DHT22;53450;42.584;23.366;2022-08-21T13:33:18;22.53;72.03
66594;DHT22;53450;42.584;23.366;2022-08-21T13:38:25;22.64;71.60
66594;DHT22;53450;42.584;23.366;2022-08-21T13:43:45;22.51;74.08
66594;DHT22;53450;42.584;23.366;2022-08-21T13:46:13;22.24;73.58
66594;DHT22;53450;42.584;23.366;2022-08-21T13:48:40;22.10;76.13
66594;DHT22;53450;42.584;23.366;2022-08-21T13:51:06;21.83;76.92
66594;DHT22;53450;42.584;23.366;2022-08-21T13:53:33;21.61;77.30
66594;DHT22;53450;42.584;23.366;2022-08-21T13:56:01;21.48;78.97
66594;DHT22;53450;42.584;23.366;2022-08-21T13:58:34;21.40;79.94
66594;DHT22;53450;42.584;23.366;2022-08-21T14:01:39;21.57;79.22
66594;DHT22;53450;42.584;23.366;2022-08-21T14:04:16;21.37;79.66
66594;DHT22;53450;42.584;23.366;2022-08-21T14:06:44;21.41;79.75
66594;DHT22;53450;42.584;23.366;2022-08-21T14:09:32;21.24;79.52
66594;DHT22;53450;42.584;23.366;2022-08-21T14:12:00;21.31;79.27
66594;DHT22;53450;42.584;23.366;2022-08-21T14:14:31;21.66;79.49
66594;DHT22;53450;42.584;23.366;2022-08-21T14:17:03;21.75;78.41
66594;DHT22;53450;42.584;23.366;2022-08-21T14:19:41;21.88;77.35
66594;DHT22;53450;42.584;23.366;2022-08-21T14:25:05;22.21;76.71
66594;DHT22;53450;42.584;23.366;2022-08-21T14:27:34;22.47;75.49
66594;DHT22;53450;42.584;23.366;2022-08-21T14:30:12;22.86;72.75
66594;DHT22;53450;42.584;23.366;2022-08-21T14:32:40;23.01;70.69
66594;DHT22;53450;42.584;23.366;2022-08-21T14:35:06;23.23;69.01
66594;DHT22;53450;42.584;23.366;2022-08-21T14:37:33;23.47;68.55
66594;DHT22;53450;42.584;23.366;2022-08-21T14:39:59;23.52;66.36
66594;DHT22;53450;42.584;23.366;2022-08-21T14:42:24;23.55;61.43
66594;DHT22;53450;42.584;23.366;2022-08-21T14:44:50;23.53;62.29
66594;DHT22;53450;42.584;23.366;2022-08-21T14:47:16;23.53;64.63
66594;DHT22;53450;42.584;23.366;2022-08-21T14:49:42;23.56;63.45
66594;DHT22;53450;42.584;23.366;2022-08-21T14:52:08;23.35;65.09
66594;DHT22;53450;42.584;23.366;2022-08-21T14:54:34;23.22;66.50
66594;DHT22;53450;42.584;23.366;2022-08-21T14:57:08;23.18;67.85
66594;DHT22;53450;42.584;23.366;2022-08-21T14:59:36;22.83;70.24
66594;DHT22;53450;42.584;23.366;2022-08-21T15:02:03;22.60;71.59
66594;DHT22;53450;42.584;23.366;2022-08-21T15:04:29;22.81;71.21
66594;DHT22;53450;42.584;23.366;2022-08-21T15:06:55;22.88;70.22
66594;DHT22;53450;42.584;23.366;2022-08-21T15:09:22;22.95;70.33
66594;DHT22;53450;42.584;23.366;2022-08-21T15:11:47;22.74;70.12
66594;DHT22;53450;42.584;23.366;2022-08-21T15:14:39;22.71;71.08
66594;DHT22;53450;42.584;23.366;2022-08-21T15:17:09;22.46;71.82
66594;DHT22;53450;42.584;23.366;2022-08-21T15:19:35;22.14;71.85
66594;DHT22;53450;42.584;23.366;2022-08-21T15:22:02;21.93;72.29
66594;DHT22;53450;42.584;23.366;2022-08-21T15:24:27;21.98;72.52
66594;DHT22;53450;42.584;23.366;2022-08-21T15:26:54;21.91;72.44
66594;DHT22;53450;42.584;23.366;2022-08-21T15:29:20;21.79;72.59
66594;DHT22;53450;42.584;23.366;2022-08-21T15:31:53;21.88;72.35
66594;DHT22;53450;42.584;23.366;2022-08-21T15:34:20;21.98;71.21
66594;DHT22;53450;42.584;23.366;2022-08-21T15:36:46;21.99;71.94
66594;DHT22;53450;42.584;23.366;2022-08-21T15:39:12;21.86;73.28
66594;DHT22;53450;42.584;23.366;2022-08-21T15:41:37;21.81;74.42
66594;DHT22;53450;42.584;23.366;2022-08-21T15:44:03;21.66;75.30
66594;DHT22;53450;42.584;23.366;2022-08-21T15:46:29;21.66;75.72
66594;DHT22;53450;42.584;23.366;2022-08-21T15:48:54;21.61;75.89
66594;DHT22;53450;42.584;23.366;2022-08-21T15:51:20;21.57;75.25
66594;DHT22;53450;42.584;23.366;2022-08-21T15:53:45;21.71;74.32
66594;DHT22;53450;42.584;23.366;2022-08-21T15:56:20;21.74;73.99
66594;DHT22;53450;42.584;23.366;2022-08-21T15:58:49;21.96;72.61
66594;DHT22;53450;42.584;23.366;2022-08-21T16:01:15;22.16;71.73
66594;DHT22;53450;42.584;23.366;2022-08-21T16:03:42;22.35;71.81
66594;DHT22;53450;42.584;23.366;2022-08-21T16:06:12;22.43;70.79
66594;DHT22;53450;42.584;23.366;2022-08-21T16:08:38;22.43;70.85
66594;DHT22;53450;42.584;23.366;2022-08-21T16:11:03;22.50;70.60
66594;DHT22;53450;42.584;23.366;2022-08-21T16:13:38;22.64;69.58
66594;DHT22;53450;42.584;23.366;2022-08-21T16:16:04;22.72;70.35
66594;DHT22;53450;42.584;23.366;2022-08-21T16:18:31;22.80;69.82
66594;DHT22;53450;42.584;23.366;2022-08-21T16:20:57;22.75;69.58
66594;DHT22;53450;42.584;23.366;2022-08-21T16:23:22;22.56;69.02
66594;DHT22;53450;42.584;23.366;2022-08-21T16:25:48;22.41;69.38
66594;DHT22;53450;42.584;23.366;2022-08-21T16:28:15;22.28;70.03
66594;DHT22;53450;42.584;23.366;2022-08-21T16:30:44;22.28;70.16
66594;DHT22;53450;42.584;23.366;2022-08-21T16:33:27;22.03;71.16
66594;DHT22;53450;42.584;23.366;2022-08-21T16:35:54;21.89;72.06
66594;DHT22;53450;42.584;23.366;2022-08-21T16:38:20;21.77;72.40
66594;DHT22;53450;42.584;23.366;2022-08-21T16:40:45;21.75;72.48
66594;DHT22;53450;42.584;23.366;2022-08-21T16:43:11;21.71;72.80
66594;DHT22;53450;42.584;23.366;2022-08-21T16:45:37;21.62;73.35